createdAt,value
2022-07-26T00:01:58.433Z,7.35
2022-07-26T00:04:26.248Z,8.48
2022-07-26T00:06:53.790Z,6.55
2022-07-26T00:09:21.326Z,6.62
2022-07-26T00:11:49.118Z,7.37
2022-07-26T00:14:16.638Z,5.70
2022-07-26T00:16:44.201Z,7.22
2022-07-26T00:19:12.194Z,7.03
2022-07-26T00:21:40.615Z,5.18
2022-07-26T00:24:09.157Z,9.73
2022-07-26T00:26:37.473Z,6.87
2022-07-26T00:29:06.025Z,4.93
2022-07-26T00:31:33.917Z,10.70
2022-07-26T00:34:01.761Z,7.12
2022-07-26T00:36:29.853Z,5.28
2022-07-26T00:38:57.362Z,6.18
2022-07-26T00:41:25.118Z,6.80
2022-07-26T00:43:57.316Z,7.50
2022-07-26T00:46:25.284Z,5.78
2022-07-26T00:48:52.925Z,10.00
2022-07-26T00:51:21.322Z,5.40
2022-07-26T00:53:49.438Z,7.85
2022-07-26T00:56:17.476Z,14.30
2022-07-26T00:58:45.037Z,6.62
2022-07-26T01:01:12.975Z,9.80
2022-07-26T01:03:40.521Z,7.12
2022-07-26T01:06:08.790Z,6.62
2022-07-26T01:08:36.803Z,5.97
2022-07-26T01:11:04.387Z,7.15
2022-07-26T01:13:35.267Z,5.60
2022-07-26T01:16:04.000Z,6.10
2022-07-26T01:18:31.589Z,5.45
2022-07-26T01:21:00.918Z,6.85
2022-07-26T01:23:29.004Z,6.78
2022-07-26T01:25:59.678Z,8.00
2022-07-26T01:28:27.984Z,5.40
2022-07-26T01:30:55.860Z,8.02
2022-07-26T01:33:23.324Z,6.90
2022-07-26T01:35:50.829Z,11.07
2022-07-26T01:38:18.651Z,9.40
2022-07-26T01:40:46.225Z,10.95
2022-07-26T01:43:13.747Z,7.20
2022-07-26T01:45:41.721Z,7.85
2022-07-26T01:48:09.340Z,5.40
2022-07-26T01:50:38.401Z,5.40
2022-07-26T01:53:06.553Z,5.80
2022-07-26T01:55:35.083Z,5.03
2022-07-26T01:58:05.247Z,6.45
2022-07-26T02:00:34.154Z,5.93
2022-07-26T02:03:02.118Z,5.25
2022-07-26T02:05:29.906Z,6.95
2022-07-26T02:07:57.389Z,7.55
2022-07-26T02:10:45.714Z,8.80
2022-07-26T02:13:14.959Z,5.10
2022-07-26T02:15:42.793Z,5.55
2022-07-26T02:18:10.296Z,11.23
2022-07-26T02:20:37.869Z,6.68
2022-07-26T02:23:05.746Z,6.03
2022-07-26T02:25:33.342Z,7.07
2022-07-26T02:28:01.629Z,7.47
2022-07-26T02:30:29.467Z,5.82
2022-07-26T02:32:57.033Z,8.85
2022-07-26T02:35:24.514Z,7.93
2022-07-26T02:37:52.404Z,6.18
2022-07-26T02:40:19.887Z,7.82
2022-07-26T02:42:47.402Z,7.82
2022-07-26T02:45:15.173Z,6.95
2022-07-26T02:47:50.397Z,7.07
2022-07-26T02:50:19.121Z,5.45
2022-07-26T02:52:48.217Z,6.70
2022-07-26T02:55:17.339Z,7.87
2022-07-26T02:57:46.156Z,6.80
2022-07-26T03:00:16.450Z,5.57
2022-07-26T03:02:44.064Z,7.37
2022-07-26T03:05:12.303Z,5.32
2022-07-26T03:07:39.825Z,11.32
2022-07-26T03:10:08.109Z,5.03
2022-07-26T03:12:35.869Z,8.32
2022-07-26T03:15:03.830Z,7.22
2022-07-26T03:17:32.224Z,6.15
2022-07-26T03:20:00.249Z,5.03
2022-07-26T03:22:27.722Z,6.45
2022-07-26T03:24:55.207Z,5.72
2022-07-26T03:27:23.074Z,6.50
2022-07-26T03:29:50.565Z,8.85
2022-07-26T03:32:18.050Z,8.05
2022-07-26T03:34:45.794Z,7.47
2022-07-26T03:37:13.253Z,7.15
2022-07-26T03:39:40.729Z,5.95
2022-07-26T03:42:08.542Z,10.75
2022-07-26T03:44:36.186Z,6.07
2022-07-26T03:47:03.827Z,6.75
2022-07-26T03:49:31.682Z,6.37
2022-07-26T03:51:59.341Z,6.35
2022-07-26T03:54:26.826Z,8.10
2022-07-26T03:56:54.553Z,6.43
2022-07-26T03:59:24.089Z,14.73
2022-07-26T04:01:51.858Z,7.65
2022-07-26T04:04:20.905Z,5.55
2022-07-26T04:06:52.993Z,11.43
2022-07-26T04:09:20.737Z,7.45
2022-07-26T04:11:48.708Z,7.50
2022-07-26T04:14:16.394Z,7.93
2022-07-26T04:16:44.195Z,7.90
2022-07-26T04:19:11.724Z,7.97
2022-07-26T04:21:39.210Z,7.18
2022-07-26T04:24:07.705Z,11.25
2022-07-26T04:26:35.414Z,12.20
2022-07-26T04:29:02.919Z,7.15
2022-07-26T04:31:36.238Z,9.07
2022-07-26T04:34:04.366Z,8.00
2022-07-26T04:36:32.349Z,9.18
2022-07-26T04:38:59.818Z,13.52
2022-07-26T04:41:27.858Z,10.43
2022-07-26T04:43:56.275Z,10.52
2022-07-26T04:46:25.299Z,7.65
2022-07-26T04:48:52.908Z,9.80
2022-07-26T04:51:20.970Z,10.23
2022-07-26T04:53:48.434Z,9.35
2022-07-26T04:56:15.890Z,9.85
2022-07-26T04:58:43.682Z,10.20
2022-07-26T05:01:11.480Z,9.18
2022-07-26T05:03:39.319Z,7.00
2022-07-26T05:06:07.139Z,8.20
2022-07-26T05:08:34.654Z,9.55
2022-07-26T05:11:02.182Z,9.93
2022-07-26T05:13:31.004Z,9.45
2022-07-26T05:15:59.848Z,9.23
2022-07-26T05:18:29.274Z,13.05
2022-07-26T05:20:59.187Z,7.97
2022-07-26T05:23:26.722Z,7.90
2022-07-26T05:25:55.446Z,10.93
2022-07-26T05:28:23.534Z,10.77
2022-07-26T05:30:51.275Z,11.82
2022-07-26T05:33:18.872Z,10.65
2022-07-26T05:35:46.613Z,7.97
2022-07-26T05:38:14.132Z,8.90
2022-07-26T05:40:42.126Z,8.93
2022-07-26T05:43:11.791Z,12.25
2022-07-26T05:45:39.424Z,9.10
2022-07-26T05:48:07.270Z,9.05
2022-07-26T05:50:35.011Z,10.75
2022-07-26T05:53:02.597Z,9.48
2022-07-26T05:55:30.086Z,13.95
2022-07-26T05:57:57.842Z,6.95
2022-07-26T06:00:26.093Z,9.10
2022-07-26T06:02:53.888Z,8.75
2022-07-26T06:05:21.394Z,10.85
2022-07-26T06:07:48.889Z,11.82
2022-07-26T06:10:16.650Z,10.38
2022-07-26T06:12:44.183Z,9.02
2022-07-26T06:15:15.718Z,13.88
2022-07-26T06:17:43.804Z,16.33
2022-07-26T06:20:11.706Z,12.65
2022-07-26T06:22:39.252Z,13.32
2022-07-26T06:25:07.549Z,13.80
2022-07-26T06:27:34.998Z,11.70
2022-07-26T06:30:02.472Z,12.35
2022-07-26T06:32:30.422Z,8.65
2022-07-26T06:34:57.890Z,12.15
2022-07-26T06:37:25.829Z,11.48
2022-07-26T06:39:53.629Z,13.48
2022-07-26T06:42:21.186Z,10.77
2022-07-26T06:44:48.697Z,10.45
2022-07-26T06:47:16.567Z,13.10
2022-07-26T06:49:44.871Z,11.23
2022-07-26T06:52:12.387Z,10.48
2022-07-26T06:54:40.168Z,13.98
2022-07-26T06:57:07.950Z,11.02
2022-07-26T06:59:35.514Z,14.80
2022-07-26T07:02:04.475Z,8.02
2022-07-26T07:04:32.807Z,10.38
2022-07-26T07:07:06.099Z,9.43
2022-07-26T07:09:35.999Z,11.13
2022-07-26T07:12:10.348Z,9.93
2022-07-26T07:14:39.192Z,10.57
2022-07-26T07:17:12.247Z,10.68
2022-07-26T07:19:41.861Z,11.80
2022-07-26T07:22:12.336Z,11.48
2022-07-26T07:24:40.937Z,10.90
2022-07-26T07:27:10.403Z,12.37
2022-07-26T07:29:38.792Z,9.48
2022-07-26T07:32:18.297Z,12.35
2022-07-26T07:34:50.959Z,13.10
2022-07-26T07:37:20.233Z,8.80
2022-07-26T07:39:50.025Z,11.50
2022-07-26T07:42:19.626Z,8.07
2022-07-26T07:44:47.583Z,9.25
2022-07-26T07:47:15.124Z,11.00
2022-07-26T07:49:43.148Z,9.38
2022-07-26T07:52:10.893Z,8.43
2022-07-26T07:54:38.329Z,8.98
2022-07-26T07:57:05.812Z,11.12
2022-07-26T07:59:33.691Z,7.85
2022-07-26T08:02:06.958Z,9.15
2022-07-26T08:04:35.000Z,8.10
2022-07-26T08:07:02.574Z,8.23
2022-07-26T08:09:30.054Z,9.32
2022-07-26T08:12:02.821Z,9.90
2022-07-26T08:14:30.343Z,9.27
2022-07-26T08:16:58.071Z,8.32
2022-07-26T08:19:26.478Z,10.30
2022-07-26T08:22:08.755Z,10.93
2022-07-26T08:24:36.712Z,9.20
2022-07-26T08:27:04.509Z,6.72
2022-07-26T08:29:32.075Z,9.88
2022-07-26T08:31:59.856Z,8.70
2022-07-26T08:34:27.383Z,6.95
2022-07-26T08:37:16.115Z,8.38
2022-07-26T08:39:42.643Z,9.30
2022-07-26T08:42:15.109Z,9.05
2022-07-26T08:44:47.259Z,6.95
2022-07-26T08:47:16.752Z,7.82
2022-07-26T08:50:03.483Z,7.65
2022-07-26T08:52:31.113Z,7.25
2022-07-26T08:54:58.717Z,8.90
2022-07-26T08:57:26.505Z,9.07
2022-07-26T09:00:15.819Z,9.45
2022-07-26T09:02:43.811Z,7.05
2022-07-26T09:05:11.672Z,8.82
2022-07-26T09:07:41.056Z,6.82
2022-07-26T09:10:11.045Z,11.07
2022-07-26T09:12:39.383Z,7.20
2022-07-26T09:15:16.910Z,7.15
2022-07-26T09:17:46.950Z,8.07
2022-07-26T09:20:17.219Z,7.05
2022-07-26T09:23:06.984Z,8.30
2022-07-26T09:25:39.574Z,8.10
2022-07-26T09:28:31.048Z,7.60
2022-07-26T09:31:04.224Z,7.30
2022-07-26T09:33:48.916Z,7.87
2022-07-26T09:36:17.635Z,9.52
2022-07-26T09:38:50.393Z,8.70
2022-07-26T09:41:22.476Z,8.80
2022-07-26T09:43:53.951Z,8.85
2022-07-26T09:46:23.645Z,8.30
2022-07-26T09:49:10.065Z,10.15
2022-07-26T09:51:43.764Z,11.50
2022-07-26T09:54:13.328Z,16.02
2022-07-26T09:56:50.431Z,11.45
2022-07-26T09:59:20.313Z,9.88
2022-07-26T10:01:49.158Z,7.93
2022-07-26T10:04:17.273Z,10.45
2022-07-26T10:06:44.837Z,10.10
2022-07-26T10:09:13.316Z,11.65
2022-07-26T10:11:52.717Z,12.27
2022-07-26T10:14:37.349Z,8.70
2022-07-26T10:17:29.223Z,10.82
2022-07-26T10:20:09.433Z,7.97
2022-07-26T10:22:50.597Z,12.07
2022-07-26T10:25:18.207Z,10.70
2022-07-26T10:27:47.185Z,11.18
2022-07-26T10:30:22.495Z,12.35
2022-07-26T10:33:01.498Z,11.95
2022-07-26T10:35:31.846Z,9.23
2022-07-26T10:38:04.533Z,11.07
2022-07-26T10:40:32.400Z,11.63
2022-07-26T10:43:39.547Z,13.50
2022-07-26T10:46:29.212Z,9.88
2022-07-26T10:49:06.944Z,11.10
2022-07-26T10:51:37.061Z,12.10
2022-07-26T10:54:13.193Z,10.88
2022-07-26T10:56:41.433Z,10.48
2022-07-26T10:59:09.263Z,12.57
2022-07-26T11:01:42.174Z,10.32
2022-07-26T11:04:20.546Z,8.45
2022-07-26T11:06:48.407Z,11.45
2022-07-26T11:09:18.509Z,12.50
2022-07-26T11:11:48.742Z,11.98
2022-07-26T11:14:18.095Z,11.05
2022-07-26T11:16:48.019Z,11.27
2022-07-26T11:19:24.885Z,11.90
2022-07-26T11:21:58.684Z,10.68
2022-07-26T11:24:27.484Z,11.90
2022-07-26T11:26:55.477Z,11.82
2022-07-26T11:29:38.188Z,11.12
2022-07-26T11:32:20.623Z,9.45
2022-07-26T11:35:04.739Z,10.38
2022-07-26T11:37:32.607Z,10.52
2022-07-26T11:40:00.280Z,9.32
2022-07-26T11:42:28.056Z,8.93
2022-07-26T11:44:55.849Z,10.80
2022-07-26T11:47:25.731Z,9.65
2022-07-26T11:50:13.929Z,11.32
2022-07-26T11:52:42.181Z,10.25
2022-07-26T11:55:09.821Z,8.45
2022-07-26T11:57:37.653Z,9.50
2022-07-26T12:00:06.862Z,11.73
2022-07-26T12:02:39.202Z,11.40
2022-07-26T12:05:16.263Z,10.65
2022-07-26T12:07:58.013Z,9.35
2022-07-26T12:10:26.568Z,10.95
2022-07-26T12:13:07.640Z,12.07
2022-07-26T12:15:52.498Z,11.93
2022-07-26T12:18:26.858Z,9.95
2022-07-26T12:21:04.490Z,9.55
2022-07-26T12:23:49.874Z,12.18
2022-07-26T12:26:26.013Z,8.70
2022-07-26T12:28:54.602Z,9.23
2022-07-26T12:31:27.644Z,11.02
2022-07-26T12:33:55.946Z,9.90
2022-07-26T12:36:27.771Z,10.38
2022-07-26T12:38:58.512Z,8.95
2022-07-26T12:41:34.981Z,9.18
2022-07-26T12:44:03.619Z,8.95
2022-07-26T12:46:35.445Z,11.32
2022-07-26T12:49:03.925Z,8.88
2022-07-26T12:51:31.979Z,8.75
2022-07-26T12:53:59.488Z,10.30
2022-07-26T12:56:27.131Z,10.45
2022-07-26T12:59:01.089Z,11.55
2022-07-26T13:01:30.060Z,9.18
2022-07-26T13:03:58.082Z,9.43
2022-07-26T13:06:25.621Z,9.93
2022-07-26T13:08:53.872Z,13.75
2022-07-26T13:11:21.708Z,10.68
2022-07-26T13:13:49.569Z,10.38
2022-07-26T13:16:17.200Z,9.23
2022-07-26T13:18:45.020Z,7.82
2022-07-26T13:21:12.575Z,10.05
2022-07-26T13:23:40.118Z,10.07
2022-07-26T13:26:09.493Z,10.23
2022-07-26T13:28:39.926Z,8.07
2022-07-26T13:31:08.060Z,9.88
2022-07-26T13:33:39.295Z,8.02
2022-07-26T13:36:06.955Z,9.43
2022-07-26T13:38:35.103Z,9.40
2022-07-26T13:41:03.182Z,7.45
2022-07-26T13:43:35.351Z,10.10
2022-07-26T13:46:04.008Z,8.77
2022-07-26T13:48:31.748Z,8.88
2022-07-26T13:50:59.685Z,8.48
2022-07-26T13:53:27.680Z,9.02
2022-07-26T13:55:55.255Z,8.23
2022-07-26T13:58:22.946Z,8.13
2022-07-26T14:00:50.775Z,8.18
2022-07-26T14:03:18.600Z,7.85
2022-07-26T14:05:46.601Z,7.97
2022-07-26T14:08:14.107Z,8.38
2022-07-26T14:10:42.145Z,7.57
2022-07-26T14:13:09.685Z,8.45
2022-07-26T14:15:37.411Z,8.68
2022-07-26T14:18:05.268Z,8.70
2022-07-26T14:20:32.934Z,8.50
2022-07-26T14:23:00.501Z,15.73
2022-07-26T14:25:28.617Z,11.20
2022-07-26T14:27:56.204Z,10.02
2022-07-26T14:30:23.948Z,8.82
2022-07-26T14:32:51.818Z,9.55
2022-07-26T14:35:19.372Z,18.87
2022-07-26T14:37:46.941Z,9.27
2022-07-26T14:40:16.214Z,9.02
2022-07-26T14:42:44.837Z,9.20
2022-07-26T14:45:13.111Z,9.68
2022-07-26T14:47:41.018Z,11.45
2022-07-26T14:50:10.191Z,10.57
2022-07-26T14:52:43.348Z,9.80
2022-07-26T14:55:11.596Z,10.30
2022-07-26T14:57:40.270Z,9.55
2022-07-26T15:00:10.746Z,10.60
2022-07-26T15:02:43.644Z,9.73
2022-07-26T15:05:12.204Z,11.30
2022-07-26T15:07:40.783Z,10.02
2022-07-26T15:10:10.541Z,10.15
2022-07-26T15:12:38.890Z,10.18
2022-07-26T15:15:07.792Z,10.45
2022-07-26T15:17:35.839Z,11.52
2022-07-26T15:20:05.074Z,10.80
2022-07-26T15:22:34.818Z,11.50
2022-07-26T15:25:03.703Z,10.82
2022-07-26T15:27:31.366Z,10.38
2022-07-26T15:30:04.183Z,11.32
2022-07-26T15:32:34.208Z,10.55
2022-07-26T15:35:02.369Z,12.10
2022-07-26T15:37:29.999Z,12.50
2022-07-26T15:39:57.675Z,10.82
2022-07-26T15:42:25.530Z,11.80
2022-07-26T15:44:53.181Z,11.20
2022-07-26T15:50:11.239Z,11.25
2022-07-26T15:52:40.590Z,10.68
2022-07-26T15:55:09.161Z,11.20
2022-07-26T15:57:37.385Z,10.90
2022-07-26T16:00:11.433Z,11.05
2022-07-26T16:02:40.560Z,12.68
2022-07-26T16:05:09.132Z,10.40
2022-07-26T16:07:37.415Z,10.15
2022-07-26T16:10:05.798Z,10.60
2022-07-26T16:12:33.661Z,9.93
2022-07-26T16:15:01.324Z,14.02
2022-07-26T16:17:29.165Z,13.68
2022-07-26T16:19:56.716Z,11.07
2022-07-26T16:22:24.444Z,11.38
2022-07-26T16:24:52.341Z,11.93
2022-07-26T16:27:20.008Z,13.55
2022-07-26T16:29:52.004Z,12.65
2022-07-26T16:32:21.414Z,12.02
2022-07-26T16:34:49.266Z,13.70
2022-07-26T16:37:16.826Z,13.05
2022-07-26T16:39:44.643Z,13.45
2022-07-26T16:42:12.194Z,14.65
2022-07-26T16:44:39.772Z,16.70
2022-07-26T16:47:07.674Z,14.05
2022-07-26T16:49:35.339Z,14.80
2022-07-26T16:52:03.106Z,15.38
2022-07-26T16:54:31.134Z,15.07
2022-07-26T16:57:00.026Z,15.02
2022-07-26T16:59:28.869Z,15.70
2022-07-26T17:01:56.896Z,15.57
2022-07-26T17:04:29.145Z,17.12
2022-07-26T17:07:23.206Z,16.77
2022-07-26T17:09:44.431Z,16.10
2022-07-26T17:12:13.238Z,15.25
2022-07-26T17:14:40.732Z,15.27
2022-07-26T17:17:08.373Z,16.30
2022-07-26T17:19:36.180Z,16.08
2022-07-26T17:22:03.929Z,16.55
2022-07-26T17:24:31.709Z,13.45
2022-07-26T17:27:00.964Z,16.85
2022-07-26T17:29:28.542Z,17.00
2022-07-26T17:31:56.141Z,16.42
2022-07-26T17:34:24.011Z,16.58
2022-07-26T17:37:02.528Z,14.82
2022-07-26T17:39:52.369Z,16.45
2022-07-26T17:42:21.632Z,16.95
2022-07-26T17:44:50.170Z,15.57
2022-07-26T17:47:29.279Z,17.65
2022-07-26T17:52:50.480Z,14.35
2022-07-26T17:55:19.496Z,13.98
2022-07-26T17:57:48.313Z,15.13
2022-07-26T18:00:21.973Z,14.68
2022-07-26T18:02:49.882Z,14.82
2022-07-26T18:05:19.033Z,14.90
2022-07-26T18:07:46.816Z,14.93
2022-07-26T18:10:14.808Z,14.15
2022-07-26T18:12:42.557Z,15.50
2022-07-26T18:15:10.360Z,15.40
2022-07-26T18:17:38.333Z,14.48
2022-07-26T18:20:07.694Z,15.00
2022-07-26T18:22:35.418Z,15.65
2022-07-26T18:25:04.004Z,16.27
2022-07-26T18:27:32.087Z,15.52
2022-07-26T18:30:00.540Z,17.35
2022-07-26T18:32:28.397Z,16.42
2022-07-26T18:34:56.241Z,16.27
2022-07-26T18:37:23.730Z,16.98
2022-07-26T18:39:57.331Z,16.62
2022-07-26T18:42:26.044Z,17.95
2022-07-26T18:44:53.900Z,17.62
2022-07-26T18:47:21.853Z,19.17
2022-07-26T18:49:50.218Z,18.70
2022-07-26T18:52:28.923Z,19.05
2022-07-26T18:55:07.032Z,18.17
2022-07-26T18:57:36.777Z,18.12
2022-07-26T19:00:12.697Z,17.92
2022-07-26T19:02:41.810Z,21.35
2022-07-26T19:05:10.242Z,17.67
2022-07-26T19:07:38.304Z,17.60
2022-07-26T19:10:07.619Z,18.15
2022-07-26T19:12:35.468Z,18.00
2022-07-26T19:15:03.844Z,20.23
2022-07-26T19:17:32.971Z,18.12
2022-07-26T19:20:00.807Z,17.25
2022-07-26T19:22:30.486Z,17.20
2022-07-26T19:24:58.368Z,16.87
2022-07-26T19:27:26.123Z,17.62
2022-07-26T19:29:54.626Z,17.08
2022-07-26T19:32:23.718Z,17.80
2022-07-26T19:34:51.611Z,16.80
2022-07-26T19:37:22.695Z,17.58
2022-07-26T19:39:52.241Z,16.55
2022-07-26T19:42:20.324Z,17.12
2022-07-26T19:44:48.130Z,16.70
2022-07-26T19:47:16.127Z,15.85
2022-07-26T19:49:44.050Z,16.50
2022-07-26T19:52:12.040Z,18.08
2022-07-26T19:54:40.574Z,17.05
2022-07-26T19:57:08.370Z,16.67
2022-07-26T19:59:37.043Z,17.37
2022-07-26T20:02:05.710Z,16.40
2022-07-26T20:04:41.809Z,16.05
2022-07-26T20:07:16.010Z,17.10
2022-07-26T20:09:43.862Z,18.25
2022-07-26T20:12:11.370Z,16.33
2022-07-26T20:14:40.008Z,17.77
2022-07-26T20:17:12.063Z,17.52
2022-07-26T20:19:41.212Z,17.37
2022-07-26T20:22:09.252Z,17.42
2022-07-26T20:24:38.245Z,16.27
2022-07-26T20:27:07.020Z,17.45
2022-07-26T20:29:35.025Z,16.33
2022-07-26T20:32:02.656Z,18.60
2022-07-26T20:34:30.196Z,17.55
2022-07-26T20:36:58.200Z,15.98
2022-07-26T20:39:27.803Z,16.55
2022-07-26T20:41:55.427Z,19.30
2022-07-26T20:44:28.139Z,17.98
2022-07-26T20:46:56.248Z,16.62
2022-07-26T20:49:24.150Z,16.87
2022-07-26T20:51:51.865Z,17.40
2022-07-26T20:54:19.411Z,18.20
2022-07-26T20:56:47.217Z,16.85
2022-07-26T20:59:15.267Z,16.50
2022-07-26T21:01:44.013Z,15.95
2022-07-26T21:04:12.112Z,15.38
2022-07-26T21:06:39.661Z,16.42
2022-07-26T21:09:08.886Z,15.02
2022-07-26T21:11:38.827Z,16.40
2022-07-26T21:14:06.711Z,16.50
2022-07-26T21:16:34.319Z,14.48
2022-07-26T21:19:02.942Z,15.85
2022-07-26T21:21:30.712Z,15.07
2022-07-26T21:23:58.239Z,15.77
2022-07-26T21:26:26.059Z,14.82
2022-07-26T21:28:53.626Z,13.45
2022-07-26T21:31:21.331Z,14.93
2022-07-26T21:33:49.137Z,13.95
2022-07-26T21:36:16.829Z,16.62
2022-07-26T21:38:44.396Z,13.43
2022-07-26T21:41:13.405Z,13.43
2022-07-26T21:43:41.805Z,13.30
2022-07-26T21:46:12.800Z,14.52
2022-07-26T21:48:41.284Z,14.95
2022-07-26T21:51:08.901Z,14.82
2022-07-26T21:53:36.483Z,15.52
2022-07-26T21:56:05.657Z,17.12
2022-07-26T21:58:36.645Z,12.88
2022-07-26T22:01:10.934Z,14.35
2022-07-26T22:03:40.189Z,12.73
2022-07-26T22:06:08.264Z,12.63
2022-07-26T22:08:36.217Z,12.68
2022-07-26T22:11:04.197Z,13.85
2022-07-26T22:13:32.016Z,12.35
2022-07-26T22:15:59.670Z,11.98
2022-07-26T22:18:27.665Z,13.55
2022-07-26T22:20:55.724Z,13.90
2022-07-26T22:23:23.456Z,13.05
2022-07-26T22:25:51.251Z,13.85
2022-07-26T22:28:19.003Z,11.30
2022-07-26T22:30:47.366Z,9.65
2022-07-26T22:33:15.329Z,10.68
2022-07-26T22:35:42.824Z,10.63
2022-07-26T22:38:11.133Z,11.27
2022-07-26T22:40:40.364Z,11.05
2022-07-26T22:43:08.430Z,11.20
2022-07-26T22:45:36.692Z,11.52
2022-07-26T22:48:05.626Z,9.73
2022-07-26T22:50:33.806Z,11.63
2022-07-26T22:53:01.794Z,10.82
2022-07-26T22:55:29.932Z,11.35
2022-07-26T22:57:57.668Z,10.65
2022-07-26T23:00:25.364Z,10.05
2022-07-26T23:02:53.376Z,10.63
2022-07-26T23:05:21.673Z,10.43
2022-07-26T23:08:18.359Z,11.40
2022-07-26T23:10:52.878Z,10.13
2022-07-26T23:13:21.289Z,11.75
2022-07-26T23:15:53.548Z,9.82
2022-07-26T23:18:24.173Z,10.48
2022-07-26T23:20:51.725Z,11.52
2022-07-26T23:23:19.305Z,9.40
2022-07-26T23:25:47.663Z,11.77
2022-07-26T23:28:35.222Z,11.00
2022-07-26T23:31:07.756Z,9.05
2022-07-26T23:33:51.584Z,9.80
2022-07-26T23:36:25.816Z,9.65
2022-07-26T23:38:57.850Z,11.05
2022-07-26T23:41:26.658Z,10.18
2022-07-26T23:43:54.604Z,13.90
2022-07-26T23:46:22.981Z,9.77
2022-07-26T23:48:51.356Z,10.60
2022-07-26T23:51:19.604Z,9.63
2022-07-26T23:53:47.272Z,9.95
2022-07-26T23:56:15.638Z,9.02
2022-07-26T23:58:43.416Z,9.80
